Web Počasí Slunečno.cz™ (Podmínky, ePrivacy) používá cookies a personalizace pro reklamní účely. Pohybem po stránce vyjadřujete souhlas. Odejít

Aktuální počasí v Česku a ve světě - METAR

Seznam meteostanic umístěných nejčasteji na letišti v ČR a ve světě

Vyhledat místa podle abecedy:
A B C D E F G H I J K L M N O P Q R S T U V W X Y Z

Filtrovat:

ID stanice:
a/nebo
Název místa (fulltext):
 
Místo (ID)Naposledy načteno 
Yamoussoukro (DIYO) 26.10.2021 14:00 UTC Zobrazit METAR
DIYO 261400Z 30004KT 9999 BKN015 32/23 Q1012 NOSIG
Yangon (VYYY) 26.10.2021 14:00 UTC Zobrazit METAR
VYYY 261400Z 24004KT 7000 FEW020 28/25 Q1011 NOSIG
Yaounde (FKYS) 26.10.2021 10:00 UTC Zobrazit METAR
FKYS 261000Z 01006KT 350V050 9999 FEW008 25/21 Q1019 NOSIG
Yerevan (UGEE) Zatím nenačteno  
Reklama

Reklama


Newslettter

Počasí na Váš email

Každý den Vám pošleme předpověď
Emaily chodí ráno a bez reklamy



Odhlásit newsletter


Další české internetové stránky o počasí najdete v katalogu TOPlist - weby o počasí nebo vyhledejte na internetu, co jste tu na Počasí Slunečno Slunečnu zatím nenašli:
Reklama